createdAt,value
2023-04-08T00:05:02.158Z,12.83
2023-04-08T00:10:05.925Z,13.63
2023-04-08T00:15:08.744Z,13.03
2023-04-08T00:20:11.695Z,9.37
2023-04-08T00:25:14.517Z,13.97
2023-04-08T00:30:17.209Z,14.73
2023-04-08T00:35:21.575Z,15.50
2023-04-08T00:40:24.468Z,9.90
2023-04-08T00:45:26.942Z,11.90
2023-04-08T00:50:29.716Z,12.13
2023-04-08T00:55:32.197Z,16.00
2023-04-08T01:00:36.752Z,15.67
2023-04-08T01:05:54.831Z,12.67
2023-04-08T01:11:01.941Z,13.87
2023-04-08T01:16:04.837Z,15.80
2023-04-08T01:21:08.062Z,15.17
2023-04-08T01:26:21.455Z,19.60
2023-04-08T01:31:26.330Z,13.43
2023-04-08T01:36:30.079Z,16.27
2023-04-08T01:41:35.974Z,19.90
2023-04-08T01:46:40.452Z,16.67
2023-04-08T01:51:44.870Z,15.90
2023-04-08T01:56:48.427Z,19.67
2023-04-08T02:01:53.571Z,17.87
2023-04-08T02:06:57.666Z,16.97
2023-04-08T02:12:00.117Z,14.10
2023-04-08T02:17:11.060Z,15.67
2023-04-08T02:22:29.787Z,21.40
2023-04-08T02:27:35.096Z,17.80
2023-04-08T02:32:38.552Z,19.90
2023-04-08T02:37:41.528Z,19.73
2023-04-08T02:42:44.904Z,19.53
2023-04-08T02:47:47.731Z,19.67
2023-04-08T02:52:50.235Z,16.57
2023-04-08T02:57:53.487Z,15.37
2023-04-08T03:02:56.172Z,16.60
2023-04-08T03:07:59.401Z,13.93
2023-04-08T03:13:01.943Z,13.60
2023-04-08T03:18:04.911Z,15.10
2023-04-08T03:23:07.422Z,14.63
2023-04-08T03:28:10.036Z,12.63
2023-04-08T03:33:12.698Z,13.57
2023-04-08T03:38:15.783Z,21.47
2023-04-08T03:43:21.512Z,17.57
2023-04-08T03:48:24.035Z,15.20
2023-04-08T03:53:29.248Z,14.77
2023-04-08T03:58:32.222Z,15.40
2023-04-08T04:03:34.684Z,15.37
2023-04-08T04:08:37.406Z,20.57
2023-04-08T04:13:39.991Z,17.87
2023-04-08T04:18:42.535Z,15.93
2023-04-08T04:23:45.002Z,16.37
2023-04-08T04:28:50.266Z,16.63
2023-04-08T04:33:53.002Z,13.17
2023-04-08T04:38:55.788Z,13.57
2023-04-08T04:43:58.527Z,16.03
2023-04-08T04:49:01.303Z,18.00
2023-04-08T04:54:03.777Z,14.33
2023-04-08T04:59:06.804Z,14.27
2023-04-08T05:04:09.243Z,15.37
2023-04-08T05:09:11.743Z,18.80
2023-04-08T05:14:14.356Z,20.77
2023-04-08T05:19:16.924Z,15.63
2023-04-08T05:24:19.564Z,18.80
2023-04-08T05:29:22.137Z,15.13
2023-04-08T05:34:24.866Z,20.60
2023-04-08T05:39:27.182Z,14.03
2023-04-08T05:44:29.656Z,18.37
2023-04-08T05:49:32.185Z,15.47
2023-04-08T05:54:34.571Z,23.67
2023-04-08T05:59:37.092Z,20.13
2023-04-08T06:04:39.623Z,24.63
2023-04-08T06:09:43.243Z,29.53
2023-04-08T06:14:46.950Z,29.13
2023-04-08T06:19:49.990Z,24.37
2023-04-08T06:24:52.697Z,29.57
2023-04-08T06:29:55.470Z,31.80
2023-04-08T06:34:57.995Z,27.70
2023-04-08T06:40:00.766Z,27.90
2023-04-08T06:45:03.988Z,18.23
2023-04-08T06:50:07.072Z,25.67
2023-04-08T06:55:09.720Z,31.77
2023-04-08T07:00:12.567Z,26.10
2023-04-08T07:05:15.342Z,30.13
2023-04-08T07:10:17.977Z,32.77
2023-04-08T07:15:20.734Z,29.37
2023-04-08T07:20:23.866Z,26.00
2023-04-08T07:25:26.337Z,24.50
2023-04-08T07:30:28.944Z,27.07
2023-04-08T07:35:32.164Z,28.97
2023-04-08T07:40:34.643Z,21.93
2023-04-08T07:45:37.160Z,14.37
2023-04-08T07:51:09.173Z,31.20
2023-04-08T07:56:04.285Z,28.47
2023-04-08T08:01:21.964Z,23.33
2023-04-08T08:06:24.574Z,26.67
2023-04-08T08:11:28.125Z,30.77
2023-04-08T08:16:32.106Z,19.67
2023-04-08T08:21:38.357Z,15.53
2023-04-08T08:26:41.106Z,29.90
2023-04-08T08:31:43.665Z,23.30
2023-04-08T08:36:46.366Z,23.03
2023-04-08T08:41:48.976Z,22.07
2023-04-08T08:46:52.329Z,10.47
2023-04-08T08:51:55.912Z,24.83
2023-04-08T08:56:58.391Z,25.37
2023-04-08T09:02:01.314Z,28.27
2023-04-08T09:07:11.490Z,25.20
2023-04-08T09:12:14.984Z,31.67
2023-04-08T09:17:33.778Z,22.37
2023-04-08T09:22:56.516Z,20.60
2023-04-08T09:27:59.759Z,32.10
2023-04-08T09:33:07.222Z,23.63
2023-04-08T09:38:10.757Z,32.23
2023-04-08T09:43:15.597Z,29.77
2023-04-08T09:48:24.278Z,24.27
2023-04-08T09:53:54.560Z,28.30
2023-04-08T09:59:04.879Z,32.73
2023-04-08T10:04:17.505Z,16.83
2023-04-08T10:09:22.645Z,21.97
2023-04-08T10:14:28.709Z,28.17
2023-04-08T10:19:42.366Z,29.70
2023-04-08T10:25:17.138Z,21.30
2023-04-08T10:30:28.786Z,21.47
2023-04-08T10:35:32.039Z,24.80
2023-04-08T10:40:42.879Z,23.60
2023-04-08T10:45:51.562Z,25.63
2023-04-08T10:50:55.691Z,20.87
2023-04-08T10:56:15.353Z,28.27
2023-04-08T11:01:18.614Z,21.63
2023-04-08T11:06:21.257Z,25.43
2023-04-08T11:11:29.584Z,24.30
2023-04-08T11:16:32.812Z,21.87
2023-04-08T11:21:36.694Z,19.80
2023-04-08T11:26:40.538Z,21.73
2023-04-08T11:31:44.332Z,24.00
2023-04-08T11:36:47.381Z,24.17
2023-04-08T11:41:50.106Z,24.47
2023-04-08T11:46:57.387Z,22.63
2023-04-08T11:52:00.774Z,21.17
2023-04-08T11:57:03.590Z,19.00
2023-04-08T12:02:06.377Z,23.50
2023-04-08T12:07:10.817Z,25.57
2023-04-08T12:12:13.232Z,27.27
2023-04-08T12:17:16.186Z,27.53
2023-04-08T12:22:18.619Z,24.57
2023-04-08T12:27:21.185Z,28.30
2023-04-08T12:32:25.468Z,26.30
2023-04-08T12:37:28.710Z,24.70
2023-04-08T12:42:34.523Z,25.63
2023-04-08T12:47:37.343Z,26.63
2023-04-08T12:52:39.923Z,24.27
2023-04-08T12:57:42.361Z,27.83
2023-04-08T13:02:45.977Z,30.47
2023-04-08T13:07:48.842Z,27.07
2023-04-08T13:12:51.615Z,23.00
2023-04-08T13:17:54.305Z,23.10
2023-04-08T13:22:57.222Z,18.57
2023-04-08T13:27:59.711Z,16.00
2023-04-08T13:33:02.288Z,30.40
2023-04-08T13:38:04.839Z,23.33
2023-04-08T13:43:08.229Z,20.50
2023-04-08T13:48:10.758Z,13.10
2023-04-08T13:53:15.109Z,25.73
2023-04-08T13:58:23.908Z,21.07
2023-04-08T14:03:28.195Z,22.73
2023-04-08T14:08:30.882Z,30.97
2023-04-08T14:13:33.540Z,22.60
2023-04-08T14:18:36.500Z,26.77
2023-04-08T14:23:38.988Z,24.53
2023-04-08T14:28:41.530Z,25.37
2023-04-08T14:33:44.607Z,19.50
2023-04-08T14:38:47.091Z,13.77
2023-04-08T14:43:49.888Z,27.00
2023-04-08T14:48:52.551Z,26.83
2023-04-08T14:53:55.443Z,23.53
2023-04-08T14:58:57.892Z,21.13
2023-04-08T15:04:00.752Z,19.67
2023-04-08T15:09:03.748Z,27.87
2023-04-08T15:14:06.386Z,19.67
2023-04-08T15:19:09.116Z,21.77
2023-04-08T15:24:11.686Z,22.53
2023-04-08T15:29:14.079Z,19.23
2023-04-08T15:34:16.839Z,26.23
2023-04-08T15:39:19.322Z,37.33
2023-04-08T15:44:22.525Z,102.20
2023-04-08T15:49:25.474Z,24.73
2023-04-08T15:54:31.015Z,22.47
2023-04-08T15:59:33.741Z,144.23
2023-04-08T16:04:36.515Z,25.70
2023-04-08T16:09:39.103Z,17.43
2023-04-08T16:14:41.462Z,26.23
2023-04-08T16:19:44.173Z,19.27
2023-04-08T16:24:46.720Z,16.77
2023-04-08T16:29:49.200Z,19.73
2023-04-08T16:34:51.902Z,20.97
2023-04-08T16:39:54.559Z,17.83
2023-04-08T16:44:58.126Z,17.33
2023-04-08T16:50:01.149Z,25.07
2023-04-08T16:55:04.655Z,18.33
2023-04-08T17:00:09.484Z,60.03
2023-04-08T17:05:12.346Z,18.10
2023-04-08T17:10:15.506Z,29.27
2023-04-08T17:15:18.352Z,86.27
2023-04-08T17:20:20.844Z,114.43
2023-04-08T17:25:24.014Z,53.23
2023-04-08T17:30:26.477Z,67.47
2023-04-08T17:35:28.950Z,61.33
2023-04-08T17:40:31.647Z,110.63
2023-04-08T17:45:34.240Z,91.80
2023-04-08T17:50:37.363Z,55.93
2023-04-08T17:55:39.775Z,56.60
2023-04-08T18:00:42.235Z,56.33
2023-04-08T18:05:44.734Z,56.73
2023-04-08T18:10:47.395Z,52.87
2023-04-08T18:15:49.982Z,35.23
2023-04-08T18:20:52.492Z,37.00
2023-04-08T18:25:54.863Z,43.60
2023-04-08T18:30:57.892Z,50.67
2023-04-08T18:36:10.637Z,52.63
2023-04-08T18:41:13.441Z,65.23
2023-04-08T18:46:16.432Z,53.97
2023-04-08T18:51:19.000Z,48.23
2023-04-08T18:56:21.647Z,32.43
2023-04-08T19:01:24.184Z,37.23
2023-04-08T19:06:26.748Z,49.73
2023-04-08T19:11:29.576Z,48.47
2023-04-08T19:16:33.679Z,60.80
2023-04-08T19:21:37.937Z,41.13
2023-04-08T19:26:40.596Z,42.20
2023-04-08T19:31:43.344Z,47.83
2023-04-08T19:36:46.492Z,39.87
2023-04-08T19:41:49.078Z,28.77
2023-04-08T19:46:52.151Z,40.83
2023-04-08T19:51:54.814Z,40.03
2023-04-08T19:56:58.566Z,39.50
2023-04-08T20:02:01.203Z,48.90
2023-04-08T20:07:03.934Z,37.23
2023-04-08T20:12:07.414Z,49.13
2023-04-08T20:17:10.209Z,44.20
2023-04-08T20:22:12.783Z,43.80
2023-04-08T20:27:15.173Z,47.63
2023-04-08T20:32:17.706Z,48.20
2023-04-08T20:37:20.188Z,37.77
2023-04-08T20:42:22.749Z,49.30
2023-04-08T20:47:25.861Z,55.03
2023-04-08T20:52:30.543Z,56.73
2023-04-08T20:57:33.396Z,74.93
2023-04-08T21:02:36.574Z,94.03
2023-04-08T21:07:44.313Z,67.77
2023-04-08T21:12:48.884Z,40.90
2023-04-08T21:17:51.545Z,27.10
2023-04-08T21:22:54.041Z,46.50
2023-04-08T21:27:56.642Z,55.13
2023-04-08T21:32:59.110Z,38.53
2023-04-08T21:38:02.863Z,28.90
2023-04-08T21:43:05.666Z,47.77
2023-04-08T21:48:08.215Z,36.53
2023-04-08T21:53:11.167Z,52.80
2023-04-08T21:58:14.516Z,36.00
2023-04-08T22:03:17.339Z,35.97
2023-04-08T22:08:20.063Z,39.00
2023-04-08T22:13:22.698Z,47.23
2023-04-08T22:18:25.198Z,47.33
2023-04-08T22:23:27.720Z,53.80
2023-04-08T22:28:30.417Z,37.20
2023-04-08T22:33:32.864Z,45.03
2023-04-08T22:38:35.710Z,58.10
2023-04-08T22:43:38.221Z,54.43
2023-04-08T22:48:41.553Z,50.73
2023-04-08T22:53:44.256Z,38.33
2023-04-08T22:58:46.705Z,37.50
2023-04-08T23:03:50.245Z,48.33
2023-04-08T23:08:52.865Z,40.03
2023-04-08T23:13:55.512Z,47.17
2023-04-08T23:18:57.970Z,50.00
2023-04-08T23:24:00.590Z,44.53
2023-04-08T23:29:03.448Z,46.90
2023-04-08T23:34:05.975Z,48.17
2023-04-08T23:39:09.327Z,41.57
2023-04-08T23:44:11.787Z,33.40
2023-04-08T23:49:14.175Z,44.80
2023-04-08T23:54:16.674Z,39.27
2023-04-08T23:59:19.226Z,43.40
